sensor_id;sensor_type;location;lat;lon;timestamp;pressure;altitude;pressure_sealevel;temperature
74450;BMP180;62881;53.724;0.040;2022-08-21T00:03:49;101300;;;16.99929
74450;BMP180;62881;53.724;0.040;2022-08-21T00:08:50;101200;;;16.98184
74450;BMP180;62881;53.724;0.040;2022-08-21T00:13:51;101200;;;16.90826
74450;BMP180;62881;53.724;0.040;2022-08-21T00:18:52;101200;;;16.83468
74450;BMP180;62881;53.724;0.040;2022-08-21T00:23:53;101200;;;16.91841
74450;BMP180;62881;53.724;0.040;2022-08-21T00:28:54;101200;;;17.0069
74450;BMP180;62881;53.724;0.040;2022-08-21T00:33:55;101200;;;17.04083
74450;BMP180;62881;53.724;0.040;2022-08-21T00:38:56;101200;;;17.15184
74450;BMP180;62881;53.724;0.040;2022-08-21T00:43:57;101200;;;17.15882
74450;BMP180;62881;53.724;0.040;2022-08-21T00:48:58;101200;;;17.13249
74450;BMP180;62881;53.724;0.040;2022-08-21T00:53:59;101200;;;17.08619
74450;BMP180;62881;53.724;0.040;2022-08-21T00:59:01;101200;;;17.05162
74450;BMP180;62881;53.724;0.040;2022-08-21T01:04:03;101200;;;16.82643
74450;BMP180;62881;53.724;0.040;2022-08-21T01:09:04;101200;;;16.8036
74450;BMP180;62881;53.724;0.040;2022-08-21T01:14:05;101200;;;16.78394
74450;BMP180;62881;53.724;0.040;2022-08-21T01:19:06;101200;;;16.76078
74450;BMP180;62881;53.724;0.040;2022-08-21T01:24:08;101200;;;16.7205
74450;BMP180;62881;53.724;0.040;2022-08-21T01:29:11;101200;;;16.737
74450;BMP180;62881;53.724;0.040;2022-08-21T01:34:15;101200;;;16.68784
74450;BMP180;62881;53.724;0.040;2022-08-21T01:39:16;101200;;;16.652
74450;BMP180;62881;53.724;0.040;2022-08-21T01:44:20;101200;;;16.50991
74450;BMP180;62881;53.724;0.040;2022-08-21T01:49:20;101200;;;16.40303
74450;BMP180;62881;53.724;0.040;2022-08-21T01:54:21;101200;;;16.35641
74450;BMP180;62881;53.724;0.040;2022-08-21T01:59:23;101200;;;16.27236
74450;BMP180;62881;53.724;0.040;2022-08-21T02:04:24;101200;;;16.08968
74450;BMP180;62881;53.724;0.040;2022-08-21T02:09:25;101200;;;16.05828
74450;BMP180;62881;53.724;0.040;2022-08-21T02:14:26;101200;;;15.95426
74450;BMP180;62881;53.724;0.040;2022-08-21T02:19:27;101200;;;15.94411
74450;BMP180;62881;53.724;0.040;2022-08-21T02:24:28;101200;;;15.86926
74450;BMP180;62881;53.724;0.040;2022-08-21T02:29:29;101200;;;15.83754
74450;BMP180;62881;53.724;0.040;2022-08-21T02:34:30;101200;;;15.74525
74450;BMP180;62881;53.724;0.040;2022-08-21T02:39:31;101200;;;15.71195
74450;BMP180;62881;53.724;0.040;2022-08-21T02:44:32;101200;;;15.6371
74450;BMP180;62881;53.724;0.040;2022-08-21T02:49:33;101200;;;15.56796
74450;BMP180;62881;53.724;0.040;2022-08-21T02:54:34;101200;;;15.50707
74450;BMP180;62881;53.724;0.040;2022-08-21T02:59:35;101200;;;15.47726
74450;BMP180;62881;53.724;0.040;2022-08-21T03:04:35;101200;;;15.57018
74450;BMP180;62881;53.724;0.040;2022-08-21T03:09:36;101200;;;15.59302
74450;BMP180;62881;53.724;0.040;2022-08-21T03:14:37;101200;;;15.65201
74450;BMP180;62881;53.724;0.040;2022-08-21T03:19:38;101200;;;15.70275
74450;BMP180;62881;53.724;0.040;2022-08-21T03:24:39;101200;;;15.71861
74450;BMP180;62881;53.724;0.040;2022-08-21T03:29:40;101200;;;15.7221
74450;BMP180;62881;53.724;0.040;2022-08-21T03:34:41;101200;;;15.6444
74450;BMP180;62881;53.724;0.040;2022-08-21T03:39:42;101200;;;15.56923
74450;BMP180;62881;53.724;0.040;2022-08-21T03:44:43;101100;;;15.43476
74450;BMP180;62881;53.724;0.040;2022-08-21T03:49:44;101100;;;15.33264
74450;BMP180;62881;53.724;0.040;2022-08-21T03:54:45;101100;;;15.31361
74450;BMP180;62881;53.724;0.040;2022-08-21T03:59:45;101100;;;15.26064
74450;BMP180;62881;53.724;0.040;2022-08-21T04:04:47;101200;;;15.20102
74450;BMP180;62881;53.724;0.040;2022-08-21T04:09:48;101200;;;15.16455
74450;BMP180;62881;53.724;0.040;2022-08-21T04:14:49;101200;;;15.1138
74450;BMP180;62881;53.724;0.040;2022-08-21T04:19:50;101200;;;15.10714
74450;BMP180;62881;53.724;0.040;2022-08-21T04:24:51;101200;;;15.01612
74450;BMP180;62881;53.724;0.040;2022-08-21T04:29:52;101200;;;15.00058
74450;BMP180;62881;53.724;0.040;2022-08-21T04:34:57;101200;;;14.92827
74450;BMP180;62881;53.724;0.040;2022-08-21T04:39:58;101200;;;14.91368
74450;BMP180;62881;53.724;0.040;2022-08-21T04:44:59;101200;;;14.78238
74450;BMP180;62881;53.724;0.040;2022-08-21T04:50:00;101200;;;14.79824
74450;BMP180;62881;53.724;0.040;2022-08-21T04:55:01;101200;;;14.73259
74450;BMP180;62881;53.724;0.040;2022-08-21T05:00:03;101200;;;14.74781
74450;BMP180;62881;53.724;0.040;2022-08-21T05:05:06;101200;;;14.68946
74450;BMP180;62881;53.724;0.040;2022-08-21T05:10:07;101200;;;14.7938
74450;BMP180;62881;53.724;0.040;2022-08-21T05:15:09;101200;;;14.8141
74450;BMP180;62881;53.724;0.040;2022-08-21T05:20:11;101200;;;15.01549
74450;BMP180;62881;53.724;0.040;2022-08-21T05:25:12;101200;;;15.10905
74450;BMP180;62881;53.724;0.040;2022-08-21T05:30:13;101200;;;15.37387
74450;BMP180;62881;53.724;0.040;2022-08-21T05:35:14;101200;;;15.55084
74450;BMP180;62881;53.724;0.040;2022-08-21T05:40:15;101200;;;15.74113
74450;BMP180;62881;53.724;0.040;2022-08-21T05:45:16;101200;;;15.75857
74450;BMP180;62881;53.724;0.040;2022-08-21T05:50:17;101200;;;15.85753
74450;BMP180;62881;53.724;0.040;2022-08-21T05:55:18;101200;;;15.84452
74450;BMP180;62881;53.724;0.040;2022-08-21T06:00:19;101200;;;15.9143
74450;BMP180;62881;53.724;0.040;2022-08-21T06:05:20;101200;;;15.8737
74450;BMP180;62881;53.724;0.040;2022-08-21T06:10:26;101200;;;16.00437
74450;BMP180;62881;53.724;0.040;2022-08-21T06:15:27;101200;;;15.97233
74450;BMP180;62881;53.724;0.040;2022-08-21T06:20:29;101300;;;16.13726
74450;BMP180;62881;53.724;0.040;2022-08-21T06:25:30;101300;;;16.2749
74450;BMP180;62881;53.724;0.040;2022-08-21T06:30:31;101300;;;16.26412
74450;BMP180;62881;53.724;0.040;2022-08-21T06:35:32;101300;;;16.25651
74450;BMP180;62881;53.724;0.040;2022-08-21T06:40:33;101300;;;16.34341
74450;BMP180;62881;53.724;0.040;2022-08-21T06:45:34;101200;;;16.36117
74450;BMP180;62881;53.724;0.040;2022-08-21T06:50:35;101200;;;16.38717
74450;BMP180;62881;53.724;0.040;2022-08-21T06:55:37;101200;;;16.44807
74450;BMP180;62881;53.724;0.040;2022-08-21T07:00:39;101200;;;16.56446
74450;BMP180;62881;53.724;0.040;2022-08-21T07:05:40;101200;;;16.65644
74450;BMP180;62881;53.724;0.040;2022-08-21T07:10:41;101200;;;16.73985
74450;BMP180;62881;53.724;0.040;2022-08-21T07:15:41;101200;;;16.75983
74450;BMP180;62881;53.724;0.040;2022-08-21T07:20:42;101200;;;16.80106
74450;BMP180;62881;53.724;0.040;2022-08-21T07:25:44;101200;;;16.93015
74450;BMP180;62881;53.724;0.040;2022-08-21T07:30:45;101200;;;17.1382
74450;BMP180;62881;53.724;0.040;2022-08-21T07:35:46;101200;;;17.2324
74450;BMP180;62881;53.724;0.040;2022-08-21T07:40:47;101200;;;17.54765
74450;BMP180;62881;53.724;0.040;2022-08-21T07:45:49;101200;;;17.51054
74450;BMP180;62881;53.724;0.040;2022-08-21T07:50:50;101200;;;17.56859
74450;BMP180;62881;53.724;0.040;2022-08-21T07:55:51;101200;;;17.77157
74450;BMP180;62881;53.724;0.040;2022-08-21T08:00:52;101300;;;17.79599
74450;BMP180;62881;53.724;0.040;2022-08-21T08:05:53;101300;;;17.91968
74450;BMP180;62881;53.724;0.040;2022-08-21T08:10:55;101300;;;18.0605
74450;BMP180;62881;53.724;0.040;2022-08-21T08:15:56;101300;;;18.18071
74450;BMP180;62881;53.724;0.040;2022-08-21T08:20:57;101300;;;18.29996
74450;BMP180;62881;53.724;0.040;2022-08-21T08:25:58;101300;;;18.40272
74450;BMP180;62881;53.724;0.040;2022-08-21T08:31:00;101300;;;18.40684
74450;BMP180;62881;53.724;0.040;2022-08-21T08:36:02;101300;;;18.53656
74450;BMP180;62881;53.724;0.040;2022-08-21T08:41:06;101300;;;18.8588
74450;BMP180;62881;53.724;0.040;2022-08-21T08:46:11;101300;;;18.76555
74450;BMP180;62881;53.724;0.040;2022-08-21T08:51:14;101300;;;18.71988
74450;BMP180;62881;53.724;0.040;2022-08-21T08:56:21;101300;;;18.72337
74450;BMP180;62881;53.724;0.040;2022-08-21T09:01:22;101300;;;18.46901
74450;BMP180;62881;53.724;0.040;2022-08-21T09:06:28;101300;;;18.89401
74450;BMP180;62881;53.724;0.040;2022-08-21T09:11:34;101300;;;19.05227
74450;BMP180;62881;53.724;0.040;2022-08-21T09:16:39;101300;;;19.4389
74450;BMP180;62881;53.724;0.040;2022-08-21T09:21:42;101400;;;19.30759
74450;BMP180;62881;53.724;0.040;2022-08-21T09:26:47;101400;;;19.18707
74450;BMP180;62881;53.724;0.040;2022-08-21T09:31:50;101400;;;19.9286
74450;BMP180;62881;53.724;0.040;2022-08-21T09:36:51;101400;;;19.54007
74450;BMP180;62881;53.724;0.040;2022-08-21T09:41:56;101400;;;19.9673
74450;BMP180;62881;53.724;0.040;2022-08-21T09:46:57;101400;;;19.93114
74450;BMP180;62881;53.724;0.040;2022-08-21T09:51:59;101400;;;20.18424
74450;BMP180;62881;53.724;0.040;2022-08-21T09:57:03;101400;;;19.91592
74450;BMP180;62881;53.724;0.040;2022-08-21T10:02:27;101400;;;20.08275
74450;BMP180;62881;53.724;0.040;2022-08-21T10:07:36;101400;;;19.75543
74450;BMP180;62881;53.724;0.040;2022-08-21T10:12:40;101400;;;20.00599
74450;BMP180;62881;53.724;0.040;2022-08-21T10:17:44;101400;;;19.89689
74450;BMP180;62881;53.724;0.040;2022-08-21T10:22:51;101400;;;20.51124
74450;BMP180;62881;53.724;0.040;2022-08-21T10:27:58;101400;;;20.46145
74450;BMP180;62881;53.724;0.040;2022-08-21T10:33:04;101400;;;19.99045
74450;BMP180;62881;53.724;0.040;2022-08-21T10:38:24;101500;;;19.91147
74450;BMP180;62881;53.724;0.040;2022-08-21T10:43:36;101500;;;20.06435
74450;BMP180;62881;53.724;0.040;2022-08-21T10:48:39;101500;;;20.10558
74450;BMP180;62881;53.724;0.040;2022-08-21T10:53:47;101500;;;19.88261
74450;BMP180;62881;53.724;0.040;2022-08-21T10:59:00;101500;;;21.17698
74450;BMP180;62881;53.724;0.040;2022-08-21T11:04:07;76400;;;21.7276
74450;BMP180;62881;53.724;0.040;2022-08-21T11:09:11;101500;;;20.79067
74450;BMP180;62881;53.724;0.040;2022-08-21T11:14:16;101500;;;21.44436
74450;BMP180;62881;53.724;0.040;2022-08-21T11:19:20;101500;;;21.45578
74450;BMP180;62881;53.724;0.040;2022-08-21T11:24:24;101500;;;21.04092
74450;BMP180;62881;53.724;0.040;2022-08-21T11:29:30;101500;;;20.85505
74450;BMP180;62881;53.724;0.040;2022-08-21T11:34:35;101500;;;20.99017
74450;BMP180;62881;53.724;0.040;2022-08-21T11:39:41;101500;;;20.87662
74450;BMP180;62881;53.724;0.040;2022-08-21T11:44:49;101500;;;21.44056
74450;BMP180;62881;53.724;0.040;2022-08-21T11:49:57;101500;;;21.13766
74450;BMP180;62881;53.724;0.040;2022-08-21T11:55:03;101500;;;20.8024
74450;BMP180;62881;53.724;0.040;2022-08-21T12:00:22;101500;;;21.06027
74450;BMP180;62881;53.724;0.040;2022-08-21T12:05:25;101500;;;21.50304
74450;BMP180;62881;53.724;0.040;2022-08-21T12:10:31;101500;;;20.82239
74450;BMP180;62881;53.724;0.040;2022-08-21T12:15:32;101500;;;21.17254
74450;BMP180;62881;53.724;0.040;2022-08-21T12:20:37;101500;;;21.47893
74450;BMP180;62881;53.724;0.040;2022-08-21T12:25:39;101500;;;21.62293
74450;BMP180;62881;53.724;0.040;2022-08-21T12:30:41;101500;;;21.25977
74450;BMP180;62881;53.724;0.040;2022-08-21T12:35:42;101500;;;21.32288
74450;BMP180;62881;53.724;0.040;2022-08-21T12:40:46;101500;;;22.04953
74450;BMP180;62881;53.724;0.040;2022-08-21T12:45:49;101500;;;21.91632
74450;BMP180;62881;53.724;0.040;2022-08-21T12:50:51;101500;;;21.2807
74450;BMP180;62881;53.724;0.040;2022-08-21T12:55:52;101500;;;21.47386
74450;BMP180;62881;53.724;0.040;2022-08-21T13:00:54;101500;;;22.00798
74450;BMP180;62881;53.724;0.040;2022-08-21T13:05:56;101500;;;21.49701
74450;BMP180;62881;53.724;0.040;2022-08-21T13:10:59;101500;;;22.0527
74450;BMP180;62881;53.724;0.040;2022-08-21T13:16:03;101500;;;21.77676
74450;BMP180;62881;53.724;0.040;2022-08-21T13:21:06;101500;;;21.6797
74450;BMP180;62881;53.724;0.040;2022-08-21T13:26:11;101500;;;21.37934
74450;BMP180;62881;53.724;0.040;2022-08-21T13:31:15;101500;;;21.47196
74450;BMP180;62881;53.724;0.040;2022-08-21T13:36:18;101500;;;21.29085
74450;BMP180;62881;53.724;0.040;2022-08-21T13:41:21;101500;;;21.02252
74450;BMP180;62881;53.724;0.040;2022-08-21T13:46:23;101500;;;21.17667
74450;BMP180;62881;53.724;0.040;2022-08-21T13:51:25;101500;;;21.55664
74450;BMP180;62881;53.724;0.040;2022-08-21T13:56:27;101500;;;21.75932
74450;BMP180;62881;53.724;0.040;2022-08-21T14:01:29;101500;;;21.79516
74450;BMP180;62881;53.724;0.040;2022-08-21T14:06:33;101500;;;21.42121
74450;BMP180;62881;53.724;0.040;2022-08-21T14:11:34;101500;;;21.72252
74450;BMP180;62881;53.724;0.040;2022-08-21T14:16:43;101500;;;22.03526
74450;BMP180;62881;53.724;0.040;2022-08-21T14:21:45;101500;;;22.10155
74450;BMP180;62881;53.724;0.040;2022-08-21T14:26:48;101500;;;21.81165
74450;BMP180;62881;53.724;0.040;2022-08-21T14:31:49;101500;;;22.15959
74450;BMP180;62881;53.724;0.040;2022-08-21T14:36:50;101500;;;22.37591
74450;BMP180;62881;53.724;0.040;2022-08-21T14:41:52;101500;;;22.51419
74450;BMP180;62881;53.724;0.040;2022-08-21T14:46:53;101500;;;22.43078
74450;BMP180;62881;53.724;0.040;2022-08-21T14:51:54;101500;;;22.54306
74450;BMP180;62881;53.724;0.040;2022-08-21T14:56:55;101500;;;22.5069
74450;BMP180;62881;53.724;0.040;2022-08-21T15:01:57;101500;;;22.65217
74450;BMP180;62881;53.724;0.040;2022-08-21T15:06:57;101500;;;21.95121
74450;BMP180;62881;53.724;0.040;2022-08-21T15:11:58;101500;;;22.23032
74450;BMP180;62881;53.724;0.040;2022-08-21T15:17:01;101500;;;22.01654
74450;BMP180;62881;53.724;0.040;2022-08-21T15:22:02;101500;;;22.07522
74450;BMP180;62881;53.724;0.040;2022-08-21T15:27:03;101500;;;22.00069
74450;BMP180;62881;53.724;0.040;2022-08-21T15:32:15;101500;;;22.2078
74450;BMP180;62881;53.724;0.040;2022-08-21T15:37:17;101500;;;22.50436
74450;BMP180;62881;53.724;0.040;2022-08-21T15:42:19;101400;;;22.71497
74450;BMP180;62881;53.724;0.040;2022-08-21T15:47:21;101400;;;22.81329
74450;BMP180;62881;53.724;0.040;2022-08-21T15:52:22;101500;;;22.71116
74450;BMP180;62881;53.724;0.040;2022-08-21T15:57:23;101400;;;22.67373
74450;BMP180;62881;53.724;0.040;2022-08-21T16:02:27;101400;;;22.79299
74450;BMP180;62881;53.724;0.040;2022-08-21T16:07:28;101400;;;22.66136
74450;BMP180;62881;53.724;0.040;2022-08-21T16:12:29;101400;;;22.42443
74450;BMP180;62881;53.724;0.040;2022-08-21T16:17:32;101400;;;22.33816
74450;BMP180;62881;53.724;0.040;2022-08-21T16:22:33;101400;;;22.7378
74450;BMP180;62881;53.724;0.040;2022-08-21T16:27:34;101400;;;22.89893
74450;BMP180;62881;53.724;0.040;2022-08-21T16:32:36;101500;;;22.9297
74450;BMP180;62881;53.724;0.040;2022-08-21T16:37:37;101500;;;22.79743
74450;BMP180;62881;53.724;0.040;2022-08-21T16:42:43;101500;;;21.63435
74450;BMP180;62881;53.724;0.040;2022-08-21T16:47:44;101400;;;20.92737
74450;BMP180;62881;53.724;0.040;2022-08-21T16:52:45;101400;;;21.30607
74450;BMP180;62881;53.724;0.040;2022-08-21T16:57:46;101400;;;21.05138
74450;BMP180;62881;53.724;0.040;2022-08-21T17:02:47;101400;;;21.27023
74450;BMP180;62881;53.724;0.040;2022-08-21T17:07:49;101400;;;20.96004
74450;BMP180;62881;53.724;0.040;2022-08-21T17:12:51;101400;;;20.89851
74450;BMP180;62881;53.724;0.040;2022-08-21T17:17:53;101400;;;20.96289
74450;BMP180;62881;53.724;0.040;2022-08-21T17:22:54;101400;;;20.81604
74450;BMP180;62881;53.724;0.040;2022-08-21T17:27:55;101400;;;20.82143
74450;BMP180;62881;53.724;0.040;2022-08-21T17:32:57;101400;;;20.68949
74450;BMP180;62881;53.724;0.040;2022-08-21T17:38:00;101400;;;20.49475
74450;BMP180;62881;53.724;0.040;2022-08-21T17:43:03;101300;;;20.39611
74450;BMP180;62881;53.724;0.040;2022-08-21T17:48:07;101300;;;20.32697
74450;BMP180;62881;53.724;0.040;2022-08-21T17:53:09;101300;;;20.28954
74450;BMP180;62881;53.724;0.040;2022-08-21T17:58:12;101400;;;20.22484
74450;BMP180;62881;53.724;0.040;2022-08-21T18:03:16;101400;;;20.12556
74450;BMP180;62881;53.724;0.040;2022-08-21T18:08:19;101300;;;20.12969
74450;BMP180;62881;53.724;0.040;2022-08-21T18:13:23;101300;;;20.06942
74450;BMP180;62881;53.724;0.040;2022-08-21T18:18:27;101400;;;19.95112
74450;BMP180;62881;53.724;0.040;2022-08-21T18:23:31;101400;;;20.00663
74450;BMP180;62881;53.724;0.040;2022-08-21T18:28:32;101400;;;20.02978
74450;BMP180;62881;53.724;0.040;2022-08-21T18:33:35;101400;;;19.88674
74450;BMP180;62881;53.724;0.040;2022-08-21T18:38:36;101400;;;19.6755
74450;BMP180;62881;53.724;0.040;2022-08-21T18:43:37;101400;;;19.52485
74450;BMP180;62881;53.724;0.040;2022-08-21T18:48:38;101400;;;19.53785
74450;BMP180;62881;53.724;0.040;2022-08-21T18:54:05;101400;;;19.62349
74450;BMP180;62881;53.724;0.040;2022-08-21T18:59:07;101400;;;19.62254
74450;BMP180;62881;53.724;0.040;2022-08-21T19:04:09;101400;;;19.57781
74450;BMP180;62881;53.724;0.040;2022-08-21T19:09:10;101400;;;19.4963
74450;BMP180;62881;53.724;0.040;2022-08-21T19:14:11;101400;;;19.40781
74450;BMP180;62881;53.724;0.040;2022-08-21T19:19:13;101400;;;19.07828
74450;BMP180;62881;53.724;0.040;2022-08-21T19:24:16;101400;;;18.89718
74450;BMP180;62881;53.724;0.040;2022-08-21T19:29:17;101400;;;18.8661
74450;BMP180;62881;53.724;0.040;2022-08-21T19:34:20;101400;;;18.62061
74450;BMP180;62881;53.724;0.040;2022-08-21T19:39:22;101400;;;18.31487
74450;BMP180;62881;53.724;0.040;2022-08-21T19:44:24;101400;;;18.40177
74450;BMP180;62881;53.724;0.040;2022-08-21T19:49:27;101400;;;18.01198
74450;BMP180;62881;53.724;0.040;2022-08-21T19:54:29;101400;;;17.94823
74450;BMP180;62881;53.724;0.040;2022-08-21T19:59:30;101400;;;18.1252
74450;BMP180;62881;53.724;0.040;2022-08-21T20:04:32;101400;;;18.16643
74450;BMP180;62881;53.724;0.040;2022-08-21T20:09:33;101400;;;18.03989
74450;BMP180;62881;53.724;0.040;2022-08-21T20:14:35;101400;;;17.74461
74450;BMP180;62881;53.724;0.040;2022-08-21T20:19:38;101400;;;17.65866
74450;BMP180;62881;53.724;0.040;2022-08-21T20:24:40;101400;;;17.68308
74450;BMP180;62881;53.724;0.040;2022-08-21T20:29:42;101400;;;17.69291
74450;BMP180;62881;53.724;0.040;2022-08-21T20:34:43;101400;;;17.62314
74450;BMP180;62881;53.724;0.040;2022-08-21T20:39:44;101400;;;17.65549
74450;BMP180;62881;53.724;0.040;2022-08-21T20:44:45;101400;;;17.71828
74450;BMP180;62881;53.724;0.040;2022-08-21T20:49:47;101400;;;17.71321
74450;BMP180;62881;53.724;0.040;2022-08-21T20:54:51;101400;;;17.74556
74450;BMP180;62881;53.724;0.040;2022-08-21T20:59:55;101400;;;17.74556
74450;BMP180;62881;53.724;0.040;2022-08-21T21:04:59;101400;;;17.70433
74450;BMP180;62881;53.724;0.040;2022-08-21T21:10:02;101400;;;17.70496
74450;BMP180;62881;53.724;0.040;2022-08-21T21:15:08;101400;;;17.63804
74450;BMP180;62881;53.724;0.040;2022-08-21T21:20:11;101400;;;17.62155
74450;BMP180;62881;53.724;0.040;2022-08-21T21:25:16;101400;;;17.63709
74450;BMP180;62881;53.724;0.040;2022-08-21T21:30:19;101500;;;17.56795
74450;BMP180;62881;53.724;0.040;2022-08-21T21:35:23;101500;;;17.52862
74450;BMP180;62881;53.724;0.040;2022-08-21T21:40:32;101500;;;17.46392
74450;BMP180;62881;53.724;0.040;2022-08-21T21:45:36;101500;;;17.46297
74450;BMP180;62881;53.724;0.040;2022-08-21T21:50:44;101500;;;17.42301
74450;BMP180;62881;53.724;0.040;2022-08-21T21:55:50;101500;;;17.42079
74450;BMP180;62881;53.724;0.040;2022-08-21T22:00:53;101500;;;17.47407
74450;BMP180;62881;53.724;0.040;2022-08-21T22:06:00;101500;;;17.4579
74450;BMP180;62881;53.724;0.040;2022-08-21T22:11:02;101500;;;17.50515
74450;BMP180;62881;53.724;0.040;2022-08-21T22:16:05;101500;;;17.49818
74450;BMP180;62881;53.724;0.040;2022-08-21T22:21:09;101500;;;17.44775
74450;BMP180;62881;53.724;0.040;2022-08-21T22:26:14;101500;;;17.44426
74450;BMP180;62881;53.724;0.040;2022-08-21T22:31:18;101500;;;17.4506
74450;BMP180;62881;53.724;0.040;2022-08-21T22:36:19;101500;;;17.44362
74450;BMP180;62881;53.724;0.040;2022-08-21T22:41:25;101500;;;17.44553
74450;BMP180;62881;53.724;0.040;2022-08-21T22:46:28;101500;;;17.46012
74450;BMP180;62881;53.724;0.040;2022-08-21T22:51:31;101500;;;17.47471
74450;BMP180;62881;53.724;0.040;2022-08-21T22:56:36;101500;;;17.39605
74450;BMP180;62881;53.724;0.040;2022-08-21T23:01:39;101500;;;17.33325
74450;BMP180;62881;53.724;0.040;2022-08-21T23:06:41;101500;;;17.31803
74450;BMP180;62881;53.724;0.040;2022-08-21T23:11:42;101500;;;17.32976
74450;BMP180;62881;53.724;0.040;2022-08-21T23:16:45;101500;;;17.34086
74450;BMP180;62881;53.724;0.040;2022-08-21T23:21:52;101500;;;17.34626
74450;BMP180;62881;53.724;0.040;2022-08-21T23:26:54;101500;;;17.35419
74450;BMP180;62881;53.724;0.040;2022-08-21T23:32:02;101500;;;17.32184
74450;BMP180;62881;53.724;0.040;2022-08-21T23:37:07;101500;;;17.26411
74450;BMP180;62881;53.724;0.040;2022-08-21T23:42:18;101500;;;17.23589
74450;BMP180;62881;53.724;0.040;2022-08-21T23:47:27;101400;;;17.24603
74450;BMP180;62881;53.724;0.040;2022-08-21T23:52:34;101400;;;17.18926
74450;BMP180;62881;53.724;0.040;2022-08-21T23:57:44;101400;;;17.17531
